Snowbird, Utah
Current Conditions -  °F | °C
As of 6:35 AM on Sunday 23 Nov 2014 (Local Time) from K36U Reporting Station
Overcast Overcast  
Wind Chill: 28°   Ceiling: 3300
Heat Index: 28°   Visibility: 10mi
Dew Point: 23°   Wind: 3mph
Humidity: 80%   Direction: 90°E
Pressure: 30.02"   Gusts: NA
Location:  40.5907°N, 111.707°W
Report Text: K36U 231335Z AUTO 09003KT 10SM SCT028 BKN033 OVC060 M02/M05 A3002 RMK AO2
Loading
Personal Weather Stations






























Interactive Weather Map New forecast layout! Learn more

10-Day Weather Forecast

Advertisements
Track Severe Weather on mobile